Time;durP1;ratioP1;P1;durP2;ratioP2;P2;SDS_P1;SDS_P2;PMS_P1;PMS_P2;Temp;Humidity;BMP_temperature;BMP_pressure;BME280_temperature;BME280_humidity;BME280_pressure;Samples;Min_cycle;Max_cycle;Signal;HPM_P1;HPM_P2
2023/10/31 00:01:01;;;;;;;;;;;;;;;14.42;65.85;99609.09;4953464;29;20274;-76
2023/10/31 00:03:26;;;;;;;;;;;;;;;14.43;65.40;99601.75;4936839;29;19954;-76
2023/10/31 00:05:52;;;;;;;;;;;;;;;14.43;65.58;99602.56;4952658;29;20359;-76
2023/10/31 00:08:17;;;;;;;;;;;;;;;14.42;65.24;99609.09;4936774;29;19918;-75
2023/10/31 00:10:44;;;;;;;;;;;;;;;14.42;65.54;99609.09;4936569;29;20291;-76
2023/10/31 00:13:10;;;;;;;;;;;;;;;14.42;65.67;99611.03;4937678;29;19914;-76
2023/10/31 00:15:35;;;;;;;;;;;;;;;14.43;65.42;99605.28;4936201;29;19927;-76
2023/10/31 00:18:00;;;;;;;;;;;;;;;14.42;65.46;99605.59;4937933;29;19965;-76
2023/10/31 00:20:26;;;;;;;;;;;;;;;14.42;65.57;99608.31;4920564;29;20164;-77
2023/10/31 00:22:51;;;;;;;;;;;;;;;14.42;65.25;99608.31;4937604;29;19919;-76
2023/10/31 00:25:16;;;;;;;;;;;;;;;14.41;65.46;99604.78;4936733;29;20268;-76
2023/10/31 00:27:41;;;;;;;;;;;;;;;14.42;65.26;99616.44;4920361;29;19919;-75
2023/10/31 00:30:07;;;;;;;;;;;;;;;14.42;65.19;99614.53;4920350;29;19918;-75
2023/10/31 00:32:32;;;;;;;;;;;;;;;14.42;65.20;99621.88;4937609;29;19918;-75
2023/10/31 00:34:57;;;;;;;;;;;;;;;14.40;65.34;99622.16;4937449;29;19926;-75
2023/10/31 00:37:23;;;;;;;;;;;;;;;14.40;65.31;99619.44;4937066;29;20418;-75
2023/10/31 00:39:48;;;;;;;;;;;;;;;14.41;65.27;99625.69;4936531;29;19910;-75
2023/10/31 00:42:14;;;;;;;;;;;;;;;14.40;65.32;99624.09;4936943;29;20371;-75
2023/10/31 00:44:39;;;;;;;;;;;;;;;14.40;65.64;99640.38;4937137;29;19958;-75
2023/10/31 00:47:05;;;;;;;;;;;;;;;14.40;65.36;99626.81;4936371;29;19969;-75
2023/10/31 00:49:30;;;;;;;;;;;;;;;14.39;65.33;99633.31;4936266;29;20006;-77
2023/10/31 00:51:55;;;;;;;;;;;;;;;14.39;65.35;99638.75;4937298;29;19921;-75
2023/10/31 00:54:21;;;;;;;;;;;;;;;14.38;65.35;99642.59;4919920;29;20347;-75
2023/10/31 00:56:46;;;;;;;;;;;;;;;14.35;65.50;99641.25;4936897;29;19923;-75
2023/10/31 00:59:11;;;;;;;;;;;;;;;14.35;65.35;99643.97;4936702;29;19919;-75
2023/10/31 01:01:36;;;;;;;;;;;;;;;14.34;65.17;99653.25;4936846;29;20359;-75
2023/10/31 01:04:02;;;;;;;;;;;;;;;14.33;65.47;99650.81;4936034;29;19918;-75
2023/10/31 01:06:27;;;;;;;;;;;;;;;14.32;65.46;99647.28;4937006;29;19918;-76
2023/10/31 01:08:52;;;;;;;;;;;;;;;14.32;65.44;99651.94;4935577;29;19915;-77
2023/10/31 01:11:18;;;;;;;;;;;;;;;14.29;65.44;99651.41;4935556;29;20267;-76
2023/10/31 01:13:43;;;;;;;;;;;;;;;14.30;65.45;99652.22;4936753;29;19957;-77
2023/10/31 01:16:08;;;;;;;;;;;;;;;14.31;65.25;99661.16;4935391;29;19988;-75
2023/10/31 01:18:34;;;;;;;;;;;;;;;14.29;65.21;99656.84;4935386;29;20443;-79
2023/10/31 01:20:59;;;;;;;;;;;;;;;14.28;65.50;99657.91;4951441;29;19966;-75
2023/10/31 01:23:24;;;;;;;;;;;;;;;14.27;65.51;99656.31;4935526;29;20386;-75
2023/10/31 01:25:49;;;;;;;;;;;;;;;14.29;65.50;99666.91;4936242;29;19970;-75
2023/10/31 01:28:15;;;;;;;;;;;;;;;14.27;65.18;99655.53;4935311;29;20005;-75
2023/10/31 01:30:40;;;;;;;;;;;;;;;14.26;65.34;99657.44;4919504;29;19925;-75
2023/10/31 01:33:05;;;;;;;;;;;;;;;14.24;65.19;99656.91;4919679;29;19919;-76
2023/10/31 01:35:30;;;;;;;;;;;;;;;14.24;65.54;99659.63;4935244;29;19925;-76
2023/10/31 01:37:56;;;;;;;;;;;;;;;14.24;65.47;99659.63;4919716;29;19914;-76
2023/10/31 01:40:21;;;;;;;;;;;;;;;14.24;65.27;99665.06;4919420;29;19919;-76
2023/10/31 01:42:47;;;;;;;;;;;;;;;14.24;65.27;99666.97;4935481;29;19919;-77
2023/10/31 01:45:13;;;;;;;;;;;;;;;14.22;65.52;99678.13;4951634;29;19922;-77
2023/10/31 01:47:38;;;;;;;;;;;;;;;14.22;65.49;99672.69;4935279;29;19950;-78
2023/10/31 01:50:06;;;;;;;;;;;;;;;14.22;65.52;99675.41;4935154;29;20334;-74
2023/10/31 01:52:32;;;;;;;;;;;;;;;14.21;65.58;99676.53;4935343;29;19937;-75
2023/10/31 01:54:58;;;;;;;;;;;;;;;14.21;65.39;99684.66;4936846;29;19923;-75
2023/10/31 01:57:23;;;;;;;;;;;;;;;14.21;65.49;99675.69;4935230;29;19921;-75
2023/10/31 01:59:49;;;;;;;;;;;;;;;14.20;65.48;99680.31;4935796;29;19966;-75
2023/10/31 02:02:15;;;;;;;;;;;;;;;14.18;65.51;99679.78;4923054;29;19941;-76
2023/10/31 02:04:40;;;;;;;;;;;;;;;14.18;65.50;99684.44;4923081;29;19926;-79
2023/10/31 02:07:05;;;;;;;;;;;;;;;14.17;65.47;99680.09;4939945;29;19915;-75
2023/10/31 02:09:31;;;;;;;;;;;;;;;14.16;65.29;99684.72;4939951;29;19922;-75
2023/10/31 02:11:57;;;;;;;;;;;;;;;14.16;65.28;99686.63;4938441;29;20017;-75
2023/10/31 02:14:23;;;;;;;;;;;;;;;14.15;65.54;99690.44;4954608;29;19918;-75
2023/10/31 02:16:48;;;;;;;;;;;;;;;14.13;65.34;99682.56;4938356;29;20360;-75
2023/10/31 02:19:16;;;;;;;;;;;;;;;14.12;65.43;99686.41;4939772;29;20375;-75
2023/10/31 02:21:41;;;;;;;;;;;;;;;14.13;65.58;99693.44;4939654;29;19921;-74
2023/10/31 02:24:07;;;;;;;;;;;;;;;14.12;65.56;99680.19;4939751;29;20323;-76
2023/10/31 02:26:33;;;;;;;;;;;;;;;14.12;65.32;99682.88;4954328;29;19914;-77
2023/10/31 02:28:58;;;;;;;;;;;;;;;14.11;65.56;99683.97;4939272;29;19915;-75
2023/10/31 02:31:24;;;;;;;;;;;;;;;14.10;65.33;99680.44;4939118;29;20328;-77
2023/10/31 02:33:50;;;;;;;;;;;;;;;14.10;65.64;99680.44;4938237;29;19921;-77
2023/10/31 02:36:15;;;;;;;;;;;;;;;14.11;65.54;99686.69;4938367;29;19914;-76
2023/10/31 02:38:40;;;;;;;;;;;;;;;14.10;65.39;99682.38;4938408;29;19925;-76
2023/10/31 02:41:05;;;;;;;;;;;;;;;14.10;65.31;99687.81;4939710;29;20041;-76
2023/10/31 02:43:31;;;;;;;;;;;;;;;14.11;65.58;99698.38;4939924;29;19925;-76
2023/10/31 02:45:56;;;;;;;;;;;;;;;14.10;65.35;99695.94;4939797;29;20308;-77
2023/10/31 02:48:21;;;;;;;;;;;;;;;14.09;65.62;99705.19;4938942;29;19921;-78
2023/10/31 02:50:46;;;;;;;;;;;;;;;14.10;65.56;99696.75;4939275;29;20271;-79
2023/10/31 02:53:12;;;;;;;;;;;;;;;14.11;65.56;99709.25;4937942;29;20005;-75
2023/10/31 02:55:37;;;;;;;;;;;;;;;14.11;65.54;99714.69;4953837;29;20264;-76
2023/10/31 02:58:02;;;;;;;;;;;;;;;14.09;65.56;99708.72;4922617;29;19919;-75
2023/10/31 03:00:27;;;;;;;;;;;;;;;14.11;65.50;99716.56;4937608;29;20367;-76
2023/10/31 03:02:53;;;;;;;;;;;;;;;14.12;65.30;99720.91;4938492;29;19914;-79
2023/10/31 03:05:18;;;;;;;;;;;;;;;14.11;65.57;99719.28;4937837;29;19918;-76
2023/10/31 03:07:44;;;;;;;;;;;;;;;14.11;65.07;99725.53;4937667;29;19919;-74
2023/10/31 03:10:10;;;;;;;;;;;;;;;14.10;65.47;99726.63;4938516;29;20035;-75
2023/10/31 03:12:35;;;;;;;;;;;;;;;14.09;65.44;99733.16;4953247;28;19951;-75
2023/10/31 03:15:00;;;;;;;;;;;;;;;14.11;65.33;99735.56;4938527;29;20374;-76
2023/10/31 03:17:27;;;;;;;;;;;;;;;14.09;65.53;99725.00;4937680;29;19919;-76
2023/10/31 03:19:53;;;;;;;;;;;;;;;14.10;65.24;99736.69;4921701;29;20018;-76
2023/10/31 03:22:18;;;;;;;;;;;;;;;14.09;65.55;99738.59;4937654;29;20025;-75
2023/10/31 03:24:43;;;;;;;;;;;;;;;14.09;65.46;99741.31;4921872;29;20367;-75
2023/10/31 03:27:09;;;;;;;;;;;;;;;14.07;65.47;99741.59;4937410;29;19914;-77
2023/10/31 03:29:34;;;;;;;;;;;;;;;14.07;65.36;99749.72;4953560;29;19936;-74
2023/10/31 03:31:59;;;;;;;;;;;;;;;14.06;65.58;99750.84;4937068;29;20287;-75
2023/10/31 03:34:24;;;;;;;;;;;;;;;14.06;65.50;99752.72;4921419;29;19961;-77
2023/10/31 03:36:50;;;;;;;;;;;;;;;14.04;65.53;99752.22;4921422;29;19979;-75
2023/10/31 03:39:15;;;;;;;;;;;;;;;14.03;65.45;99753.31;4938359;29;20376;-76
2023/10/31 03:41:42;;;;;;;;;;;;;;;14.02;65.55;99754.41;4936909;29;19971;-76
2023/10/31 03:44:07;;;;;;;;;;;;;;;14.01;65.50;99760.94;4936875;29;20290;-75
2023/10/31 03:46:33;;;;;;;;;;;;;;;14.01;65.48;99767.19;4938191;29;19925;-77
2023/10/31 03:48:58;;;;;;;;;;;;;;;14.01;65.39;99769.06;4938596;29;19921;-74
2023/10/31 03:51:23;;;;;;;;;;;;;;;14.02;65.43;99773.44;4937020;29;20350;-74
2023/10/31 03:53:48;;;;;;;;;;;;;;;14.02;65.55;99778.84;4953011;29;19926;-75
2023/10/31 03:56:14;;;;;;;;;;;;;;;14.01;65.61;99775.34;4937414;29;19965;-74
2023/10/31 03:58:40;;;;;;;;;;;;;;;14.02;65.50;99779.66;4937993;29;19918;-75
2023/10/31 04:01:05;;;;;;;;;;;;;;;14.02;65.47;99787.81;4937840;29;20050;-75
2023/10/31 04:03:30;;;;;;;;;;;;;;;14.03;65.59;99785.91;4952773;29;20013;-75
2023/10/31 04:05:56;;;;;;;;;;;;;;;14.03;65.64;99788.63;4936795;29;20267;-78
2023/10/31 04:08:21;;;;;;;;;;;;;;;14.03;65.58;99794.03;4952986;29;19919;-75
2023/10/31 04:10:46;;;;;;;;;;;;;;;14.03;65.39;99794.03;4936737;29;19978;-76
2023/10/31 04:13:11;;;;;;;;;;;;;;;14.03;65.53;99802.19;4936468;29;19945;-75
2023/10/31 04:15:37;;;;;;;;;;;;;;;14.03;65.41;99797.56;4936519;29;19923;-77
2023/10/31 04:18:03;;;;;;;;;;;;;;;14.04;65.53;99806.53;4937564;29;20024;-77
2023/10/31 04:20:28;;;;;;;;;;;;;;;14.04;65.54;99810.06;4952868;29;19957;-76
2023/10/31 04:22:53;;;;;;;;;;;;;;;14.03;65.45;99815.75;4937360;29;19914;-76
2023/10/31 04:25:18;;;;;;;;;;;;;;;14.04;65.52;99817.41;4937754;29;19923;-76
2023/10/31 04:27:44;;;;;;;;;;;;;;;14.03;65.56;99823.91;4951797;29;19923;-76
2023/10/31 04:30:09;;;;;;;;;;;;;;;14.04;65.44;99822.84;4937094;29;19923;-76
2023/10/31 04:32:34;;;;;;;;;;;;;;;14.04;65.59;99822.84;4936081;29;20382;-76
2023/10/31 04:35:00;;;;;;;;;;;;;;;14.03;65.36;99827.44;4921000;29;19919;-79
2023/10/31 04:37:25;;;;;;;;;;;;;;;14.04;65.21;99828.25;4936047;29;20513;-76
2023/10/31 04:39:51;;;;;;;;;;;;;;;14.04;65.54;99837.22;4921048;29;20384;-76
2023/10/31 04:42:16;;;;;;;;;;;;;;;14.03;65.56;99827.44;4936012;29;20486;-76
2023/10/31 04:44:41;;;;;;;;;;;;;;;14.02;65.58;99825.03;4937195;29;19914;-76
2023/10/31 04:47:07;;;;;;;;;;;;;;;14.02;65.51;99825.03;4935770;29;20319;-75
2023/10/31 04:49:34;;;;;;;;;;;;;;;14.03;65.39;99832.06;4936421;29;19929;-76
2023/10/31 04:51:59;;;;;;;;;;;;;;;14.02;65.39;99833.16;4936806;29;19915;-76
2023/10/31 04:54:25;;;;;;;;;;;;;;;14.02;65.56;99841.31;4920611;29;19919;-76
2023/10/31 04:56:50;;;;;;;;;;;;;;;14.01;65.33;99835.06;4935663;29;19976;-76
2023/10/31 04:59:15;;;;;;;;;;;;;;;14.00;65.41;99838.88;4935937;29;20040;-76
2023/10/31 05:01:40;;;;;;;;;;;;;;;14.00;65.41;99836.16;4935779;29;19922;-76
2023/10/31 05:04:06;;;;;;;;;;;;;;;13.99;65.57;99836.47;4936607;29;19954;-78
2023/10/31 05:06:31;;;;;;;;;;;;;;;13.99;65.55;99831.03;4935720;29;20269;-76
2023/10/31 05:08:56;;;;;;;;;;;;;;;13.98;65.53;99832.91;4935824;29;19918;-75
2023/10/31 05:11:21;;;;;;;;;;;;;;;13.98;65.33;99838.34;4935093;29;20410;-76
2023/10/31 05:13:47;;;;;;;;;;;;;;;13.99;65.43;99825.59;4937103;29;20009;-76
2023/10/31 05:16:12;;;;;;;;;;;;;;;13.97;65.37;99831.31;4935149;29;19923;-76
2023/10/31 05:18:37;;;;;;;;;;;;;;;13.96;65.51;99826.97;4935906;29;20256;-76
2023/10/31 05:21:03;;;;;;;;;;;;;;;13.95;65.32;99844.34;4937285;29;19915;-76
2023/10/31 05:23:29;;;;;;;;;;;;;;;13.94;65.50;99840.03;4935568;29;20390;-76
2023/10/31 05:25:55;;;;;;;;;;;;;;;13.94;65.48;99845.47;4935284;29;19941;-77
2023/10/31 05:28:20;;;;;;;;;;;;;;;13.94;65.49;99859.03;4936519;29;19941;-76
2023/10/31 05:30:46;;;;;;;;;;;;;;;13.94;65.63;99852.81;4936869;29;20374;-76
2023/10/31 05:33:11;;;;;;;;;;;;;;;13.93;65.58;99857.41;4936974;29;19919;-76
2023/10/31 05:35:36;;;;;;;;;;;;;;;13.93;65.27;99857.41;4939542;29;19969;-74
2023/10/31 05:38:01;;;;;;;;;;;;;;;13.93;65.47;99864.75;4943094;29;19918;-75
2023/10/31 05:40:29;;;;;;;;;;;;;;;13.93;65.44;99872.88;4941541;29;20362;-75
2023/10/31 05:42:54;;;;;;;;;;;;;;;13.92;65.50;99877.50;4926061;29;19918;-75
2023/10/31 05:45:20;;;;;;;;;;;;;;;13.92;65.65;99887.56;4942815;29;20009;-74
2023/10/31 05:47:45;;;;;;;;;;;;;;;13.92;65.65;99885.66;4957909;29;19919;-75
2023/10/31 05:50:10;;;;;;;;;;;;;;;13.92;65.41;99882.94;4941314;29;19965;-78
2023/10/31 05:52:36;;;;;;;;;;;;;;;13.91;65.40;99886.75;4942550;29;19914;-77
2023/10/31 05:55:01;;;;;;;;;;;;;;;13.91;65.23;99891.34;4941636;29;20366;-77
2023/10/31 05:57:27;;;;;;;;;;;;;;;13.90;65.41;99898.69;4942327;29;19957;-77
2023/10/31 05:59:52;;;;;;;;;;;;;;;13.90;65.60;99901.41;4941393;29;19919;-75
2023/10/31 06:02:17;;;;;;;;;;;;;;;13.90;65.47;99903.31;4925441;29;19922;-75
2023/10/31 06:04:43;;;;;;;;;;;;;;;13.89;65.65;99912.56;4942987;29;19919;-76
2023/10/31 06:07:08;;;;;;;;;;;;;;;13.89;65.35;99918.81;4925512;29;19918;-74
2023/10/31 06:09:33;;;;;;;;;;;;;;;13.89;65.42;99916.09;4943109;29;19948;-76
2023/10/31 06:12:02;;;;;;;;;;;;;;;13.89;65.47;99907.94;4942609;29;20274;-76
2023/10/31 06:14:27;;;;;;;;;;;;;;;13.89;65.54;99920.72;4941208;29;20282;-76
2023/10/31 06:16:53;;;;;;;;;;;;;;;13.88;65.36;99919.88;4941058;29;19923;-75
2023/10/31 06:19:18;;;;;;;;;;;;;;;13.87;65.56;99917.47;4941341;29;19925;-76
2023/10/31 06:21:43;;;;;;;;;;;;;;;13.88;65.55;99925.31;4942563;29;19925;-76
2023/10/31 06:24:09;;;;;;;;;;;;;;;13.87;65.45;99922.91;4942360;29;20355;-77
2023/10/31 06:26:34;;;;;;;;;;;;;;;13.85;65.80;99918.56;4941284;29;19922;-75
2023/10/31 06:29:00;;;;;;;;;;;;;;;13.84;65.55;99929.72;4942766;29;19974;-75
2023/10/31 06:31:25;;;;;;;;;;;;;;;13.84;65.69;99927.81;4941175;29;19918;-76
2023/10/31 06:33:50;;;;;;;;;;;;;;;13.83;65.69;99928.91;4942597;29;19954;-75
2023/10/31 06:36:16;;;;;;;;;;;;;;;13.84;65.59;99935.16;4942313;29;19934;-80
2023/10/31 06:38:41;;;;;;;;;;;;;;;13.84;65.54;99938.66;4942372;29;19925;-76
2023/10/31 06:41:07;;;;;;;;;;;;;;;13.84;65.56;99946.00;4941153;29;19925;-76
2023/10/31 06:43:32;;;;;;;;;;;;;;;13.83;65.47;99947.91;4942564;29;19919;-77
2023/10/31 06:46:00;;;;;;;;;;;;;;;13.83;65.45;99947.06;4942009;29;19934;-77
2023/10/31 06:48:25;;;;;;;;;;;;;;;13.81;65.57;99952.81;4939399;29;19919;-75
2023/10/31 06:50:51;;;;;;;;;;;;;;;13.82;65.82;99948.19;4938018;29;19918;-76
2023/10/31 06:53:16;;;;;;;;;;;;;;;13.82;65.59;99942.75;4939086;29;19914;-77
2023/10/31 06:55:41;;;;;;;;;;;;;;;13.82;65.57;99950.91;4937963;29;19954;-76
2023/10/31 06:58:06;;;;;;;;;;;;;;;13.83;65.51;99958.78;4938498;29;19919;-75
2023/10/31 07:00:32;;;;;;;;;;;;;;;13.83;65.42;99960.66;4938097;29;19921;-78
2023/10/31 07:02:58;;;;;;;;;;;;;;;13.82;65.22;99957.13;4939073;29;19928;-80
2023/10/31 07:05:24;;;;;;;;;;;;;;;13.82;65.32;99959.84;4922250;29;19956;-78
2023/10/31 07:07:50;;;;;;;;;;;;;;;13.81;65.40;99963.66;4937627;29;20000;-80
2023/10/31 07:10:15;;;;;;;;;;;;;;;13.82;65.27;99968.00;4937772;29;19915;-78
2023/10/31 07:12:40;;;;;;;;;;;;;;;13.82;65.45;99964.47;4938783;29;19914;-78
2023/10/31 07:15:06;;;;;;;;;;;;;;;13.81;65.45;99966.38;4938715;29;20306;-76
2023/10/31 07:17:31;;;;;;;;;;;;;;;13.82;65.61;99972.63;4954399;29;19977;-77
2023/10/31 07:19:56;;;;;;;;;;;;;;;13.81;65.47;99977.25;4921542;29;20393;-79
2023/10/31 07:22:24;;;;;;;;;;;;;;;13.81;65.44;99979.16;4921663;29;19920;-78
2023/10/31 07:24:49;;;;;;;;;;;;;;;13.80;65.28;99983.75;4939126;29;20005;-77
2023/10/31 07:27:15;;;;;;;;;;;;;;;13.82;65.37;99991.63;4937786;29;20050;-78
2023/10/31 07:29:41;;;;;;;;;;;;;;;13.81;65.13;99984.56;4938104;29;19930;-80
2023/10/31 07:32:07;;;;;;;;;;;;;;;13.79;65.26;99990.28;4937213;29;19915;-79
2023/10/31 07:34:33;;;;;;;;;;;;;;;13.80;65.34;99999.22;4937324;29;19934;-77
2023/10/31 07:36:58;;;;;;;;;;;;;;;13.80;65.15;99991.88;4937244;29;19914;-82
2023/10/31 07:39:23;;;;;;;;;;;;;;;13.79;65.25;100001.13;4936690;29;19921;-83
2023/10/31 07:41:48;;;;;;;;;;;;;;;13.79;65.27;99997.63;4953678;29;20033;-76
2023/10/31 07:44:14;;;;;;;;;;;;;;;13.79;65.15;99989.47;4937306;29;19915;-77
2023/10/31 07:46:39;;;;;;;;;;;;;;;13.79;65.30;99994.91;4920767;29;20421;-80
2023/10/31 07:49:04;;;;;;;;;;;;;;;13.77;65.32;99997.88;4952551;29;19914;-78
2023/10/31 07:51:30;;;;;;;;;;;;;;;13.76;65.42;99996.28;4938486;29;19926;-78
2023/10/31 07:53:55;;;;;;;;;;;;;;;13.78;65.28;100006.84;4936678;29;20233;-76
2023/10/31 07:56:23;;;;;;;;;;;;;;;13.78;65.28;100004.13;4921459;29;20274;-77
2023/10/31 07:58:48;;;;;;;;;;;;;;;13.77;65.13;99999.78;4936954;29;19926;-80
2023/10/31 08:01:14;;;;;;;;;;;;;;;13.76;65.45;100004.41;4936852;29;19914;-79
2023/10/31 08:03:39;;;;;;;;;;;;;;;13.76;65.33;100003.63;4920629;29;19919;-80
2023/10/31 08:06:05;;;;;;;;;;;;;;;13.75;65.49;100008.22;4920624;29;20327;-79
2023/10/31 08:08:31;;;;;;;;;;;;;;;13.75;65.67;100015.53;4937059;29;20244;-79
2023/10/31 08:10:58;;;;;;;;;;;;;;;13.73;65.52;100007.69;4937514;29;19926;-77
2023/10/31 08:13:23;;;;;;;;;;;;;;;13.72;65.47;100005.25;4937652;29;19915;-79
2023/10/31 08:15:48;;;;;;;;;;;;;;;13.71;65.31;100012.59;4937165;29;19929;-76
2023/10/31 08:18:13;;;;;;;;;;;;;;;13.71;65.31;100015.31;4937315;29;20367;-78
2023/10/31 08:20:39;;;;;;;;;;;;;;;13.70;65.39;100018.28;4920381;29;20013;-79
2023/10/31 08:23:10;;;;;;;;;;;;;;;13.69;65.60;100016.69;4938931;29;20330;-79
2023/10/31 08:25:35;;;;;;;;;;;;;;;13.67;65.65;100025.09;4939470;29;19915;-78
2023/10/31 08:28:01;;;;;;;;;;;;;;;13.67;65.62;100032.44;4937888;29;20005;-79
2023/10/31 08:30:26;;;;;;;;;;;;;;;13.66;65.82;100028.91;4920661;29;19919;-78
2023/10/31 08:32:51;;;;;;;;;;;;;;;13.67;65.50;100033.22;4921191;29;19954;-79
2023/10/31 08:35:17;;;;;;;;;;;;;;;13.67;65.61;100030.53;4920941;29;20018;-78
2023/10/31 08:37:42;;;;;;;;;;;;;;;13.68;65.29;100026.69;4920297;29;20375;-79
2023/10/31 08:40:08;;;;;;;;;;;;;;;13.68;65.52;100032.13;4937783;29;19927;-78
2023/10/31 08:42:33;;;;;;;;;;;;;;;13.68;65.50;100034.84;4936416;29;20317;-84
2023/10/31 08:44:58;;;;;;;;;;;;;;;13.69;65.65;100041.09;4920287;29;20323;-81
2023/10/31 08:47:24;;;;;;;;;;;;;;;13.69;65.26;100035.69;4936833;29;20335;-81
2023/10/31 08:49:49;;;;;;;;;;;;;;;13.69;65.43;100044.63;4935852;29;20315;-79
2023/10/31 08:52:14;;;;;;;;;;;;;;;13.69;65.65;100050.06;4935878;29;20286;-78
2023/10/31 08:54:39;;;;;;;;;;;;;;;13.67;65.58;100054.16;4919676;29;19926;-77
2023/10/31 08:57:05;;;;;;;;;;;;;;;13.68;65.57;100058.47;4952291;29;20057;-76
2023/10/31 08:59:30;;;;;;;;;;;;;;;13.67;65.48;100068.53;4935610;29;20352;-78
2023/10/31 09:01:55;;;;;;;;;;;;;;;13.67;65.67;100067.72;4936426;29;19915;-76
2023/10/31 09:04:20;;;;;;;;;;;;;;;13.67;65.83;100073.13;4951404;29;20239;-77
2023/10/31 09:06:46;;;;;;;;;;;;;;;13.67;65.54;100073.13;4935904;29;19926;-79
2023/10/31 09:09:11;;;;;;;;;;;;;;;13.68;65.53;100080.19;4919068;29;20381;-78
2023/10/31 09:11:36;;;;;;;;;;;;;;;13.67;65.63;100082.09;4919393;29;19918;-79
2023/10/31 09:14:02;;;;;;;;;;;;;;;13.68;65.68;100086.41;4936643;29;19918;-77
2023/10/31 09:16:27;;;;;;;;;;;;;;;13.68;65.72;100089.13;4936902;29;19994;-78
2023/10/31 09:18:52;;;;;;;;;;;;;;;13.69;65.65;100096.19;4935473;29;19910;-79
2023/10/31 09:21:18;;;;;;;;;;;;;;;13.71;65.77;100109.47;4935100;29;19923;-78
2023/10/31 09:23:43;;;;;;;;;;;;;;;13.70;65.63;100108.66;4935477;29;19915;-78
2023/10/31 09:26:08;;;;;;;;;;;;;;;13.70;65.58;100111.38;4935287;29;19937;-79
2023/10/31 09:28:36;;;;;;;;;;;;;;;13.70;65.50;100121.44;4919963;29;20274;-81
2023/10/31 09:31:01;;;;;;;;;;;;;;;13.70;65.49;100122.22;4935331;29;19953;-79
2023/10/31 09:33:26;;;;;;;;;;;;;;;13.70;65.67;100116.81;4935240;29;19954;-79
2023/10/31 09:35:52;;;;;;;;;;;;;;;13.70;65.73;100124.16;4919508;29;19919;-78
2023/10/31 09:38:18;;;;;;;;;;;;;;;13.70;65.68;100133.09;4919430;29;19923;-79
2023/10/31 09:40:45;;;;;;;;;;;;;;;13.70;65.85;100135.81;4934910;29;19918;-79
2023/10/31 09:43:10;;;;;;;;;;;;;;;13.69;65.86;100139.63;4935566;29;19918;-79
2023/10/31 09:45:36;;;;;;;;;;;;;;;13.71;65.62;100139.31;4951438;28;20009;-80
2023/10/31 09:48:02;;;;;;;;;;;;;;;13.72;65.69;100130.09;4935291;29;20371;-79
2023/10/31 09:50:29;;;;;;;;;;;;;;;13.72;65.54;100147.19;4935085;29;19915;-77
2023/10/31 09:52:55;;;;;;;;;;;;;;;13.75;65.67;100151.25;4934987;29;19915;-78
2023/10/31 09:55:20;;;;;;;;;;;;;;;13.75;65.79;100148.53;4935790;29;20387;-78
2023/10/31 09:57:45;;;;;;;;;;;;;;;13.74;65.84;100153.16;4935305;29;19927;-78
2023/10/31 10:00:11;;;;;;;;;;;;;;;13.75;65.67;100157.50;4935005;29;19969;-77
2023/10/31 10:02:37;;;;;;;;;;;;;;;13.76;65.68;100155.63;4950763;29;19962;-81
2023/10/31 10:05:03;;;;;;;;;;;;;;;13.78;65.72;100156.97;4935206;29;19918;-79
2023/10/31 10:07:28;;;;;;;;;;;;;;;13.78;65.72;100165.09;4934927;29;19918;-80
2023/10/31 10:09:55;;;;;;;;;;;;;;;13.80;65.66;100165.63;4936027;29;19981;-78
2023/10/31 10:12:21;;;;;;;;;;;;;;;13.82;65.59;100168.88;4936240;29;20011;-79
2023/10/31 10:14:46;;;;;;;;;;;;;;;13.84;65.42;100165.88;4934730;29;20338;-79
2023/10/31 10:17:21;;;;;;;;;;;;;;;13.85;65.67;100168.31;4918945;29;19922;-77
2023/10/31 10:19:46;;;;;;;;;;;;;;;13.87;65.91;100178.09;4934930;29;19918;-80
2023/10/31 10:22:12;;;;;;;;;;;;;;;13.87;65.48;100172.66;4953920;28;20013;-79
2023/10/31 10:24:41;;;;;;;;;;;;;;;13.88;65.34;100177.00;4939076;29;20052;-82
2023/10/31 10:27:10;;;;;;;;;;;;;;;13.89;65.46;100175.91;4954270;29;20287;-79
2023/10/31 10:29:37;;;;;;;;;;;;;;;13.90;65.59;100177.53;4938231;29;20002;-79
2023/10/31 10:32:06;;;;;;;;;;;;;;;13.90;65.57;100186.47;4938499;29;20014;-78
2023/10/31 10:34:31;;;;;;;;;;;;;;;13.91;65.38;100188.13;4939409;29;19946;-77
2023/10/31 10:36:57;;;;;;;;;;;;;;;13.92;65.47;100199.78;4938059;29;19969;-77
2023/10/31 10:39:22;;;;;;;;;;;;;;;13.91;65.65;100207.13;4922457;29;20256;-78
2023/10/31 10:41:58;;;;;;;;;;;;;;;13.90;65.64;100202.78;4938296;29;19915;-77
2023/10/31 10:44:32;;;;;;;;;;;;;;;13.92;65.49;100207.94;4937930;29;20235;-80
2023/10/31 10:46:58;;;;;;;;;;;;;;;13.92;65.57;100210.66;4938039;29;20275;-79
2023/10/31 10:49:25;;;;;;;;;;;;;;;13.93;65.56;100207.63;4937851;29;20014;-80
2023/10/31 10:52:14;;;;;;;;;;;;;;;13.95;65.32;100212.81;4938047;29;19914;-79
2023/10/31 10:55:12;;;;;;;;;;;;;;;13.97;65.37;100216.06;4928572;29;19915;-81
2023/10/31 10:57:41;;;;;;;;;;;;;;;13.96;65.50;100212.53;4927055;29;20363;-80
2023/10/31 11:00:12;;;;;;;;;;;;;;;13.97;65.77;100213.34;4937812;29;19915;-80
2023/10/31 11:02:39;;;;;;;;;;;;;;;13.96;65.39;100209.00;4953644;29;19919;-78
2023/10/31 11:05:06;;;;;;;;;;;;;;;13.95;65.66;100208.19;4937838;29;19962;-81
2023/10/31 11:07:32;;;;;;;;;;;;;;;13.95;65.61;100199.22;4938425;29;20005;-81
2023/10/31 11:09:58;;;;;;;;;;;;;;;13.96;65.64;100209.00;4938179;29;19921;-78
2023/10/31 11:12:25;;;;;;;;;;;;;;;13.95;65.69;100213.59;4939217;29;19950;-80
2023/10/31 11:14:51;;;;;;;;;;;;;;;13.96;65.83;100214.41;4938465;29;19915;-77
2023/10/31 11:17:24;;;;;;;;;;;;;;;13.97;65.74;100208.72;4938805;29;20274;-79
2023/10/31 11:19:50;;;;;;;;;;;;;;;13.97;65.71;100219.59;4953846;29;19974;-77
2023/10/31 11:22:17;;;;;;;;;;;;;;;13.99;65.78;100216.59;4938618;29;19922;-80
2023/10/31 11:24:42;;;;;;;;;;;;;;;14.00;65.42;100208.16;4938836;29;19989;-81
2023/10/31 11:27:07;;;;;;;;;;;;;;;13.99;65.71;100217.41;4937504;29;20359;-80
2023/10/31 11:29:33;;;;;;;;;;;;;;;14.01;65.43;100214.41;4939004;29;19957;-79
2023/10/31 11:31:59;;;;;;;;;;;;;;;14.02;65.62;100205.16;4936950;29;19918;-79
2023/10/31 11:34:28;;;;;;;;;;;;;;;14.02;66.00;100207.88;4937795;29;20398;-78
2023/10/31 11:36:53;;;;;;;;;;;;;;;14.03;65.76;100212.22;4937185;29;20398;-78
2023/10/31 11:39:26;;;;;;;;;;;;;;;14.04;65.81;100209.25;4938338;29;19923;-79
2023/10/31 11:41:55;;;;;;;;;;;;;;;14.06;65.63;100206.22;4937142;29;19910;-78
2023/10/31 11:44:27;;;;;;;;;;;;;;;14.07;65.66;100211.38;4921927;29;19919;-80
2023/10/31 11:46:53;;;;;;;;;;;;;;;14.07;65.62;100205.97;4920953;29;20001;-82
2023/10/31 11:49:50;;;;;;;;;;;;;;;14.09;65.58;100207.59;4921411;29;19954;-81
2023/10/31 11:52:17;;;;;;;;;;;;;;;14.09;65.59;100205.69;4925674;29;20361;-80
2023/10/31 11:54:42;;;;;;;;;;;;;;;14.12;65.58;100207.84;4937966;29;19915;-81
2023/10/31 11:57:08;;;;;;;;;;;;;;;14.13;65.67;100212.16;4953066;29;19926;-82
2023/10/31 11:59:39;;;;;;;;;;;;;;;14.14;65.75;100204.84;4920849;29;20426;-77
2023/10/31 12:02:14;;;;;;;;;;;;;;;14.17;65.65;100207.00;4937547;29;20317;-77
2023/10/31 12:04:40;;;;;;;;;;;;;;;14.20;65.35;100212.69;4936824;29;20006;-83
2023/10/31 12:07:05;;;;;;;;;;;;;;;14.22;65.71;100209.69;4938161;29;20059;-79
2023/10/31 12:09:30;;;;;;;;;;;;;;;14.22;65.73;100206.97;4937297;29;19954;-80
2023/10/31 12:11:56;;;;;;;;;;;;;;;14.20;65.87;100201.00;4936176;29;20322;-81
2023/10/31 12:14:21;;;;;;;;;;;;;;;14.19;65.65;100205.63;4936303;29;20408;-80
2023/10/31 12:16:47;;;;;;;;;;;;;;;14.21;65.94;100224.34;4920303;29;19922;-83
2023/10/31 12:19:12;;;;;;;;;;;;;;;14.21;65.89;100222.47;4952203;29;20319;-80
2023/10/31 12:21:39;;;;;;;;;;;;;;;14.22;65.64;100224.09;4936408;29;19970;-80
2023/10/31 12:24:08;;;;;;;;;;;;;;;14.22;66.04;100231.44;4936161;29;20383;-80
2023/10/31 12:26:35;;;;;;;;;;;;;;;14.23;65.77;100227.59;4920506;29;19926;-82
2023/10/31 12:29:17;;;;;;;;;;;;;;;14.24;65.77;100226.53;4935987;29;19937;-80
2023/10/31 12:31:50;;;;;;;;;;;;;;;14.23;65.91;100225.69;4937196;29;19986;-81
2023/10/31 12:34:16;;;;;;;;;;;;;;;14.26;65.89;100235.19;4935997;29;19962;-80
2023/10/31 12:36:42;;;;;;;;;;;;;;;14.26;65.97;100233.31;4935889;29;19914;-81